sensor_id;sensor_type;location;lat;lon;timestamp;P1;durP1;ratioP1;P2;durP2;ratioP2
2824;SDS011;1420;51.324;12.344;2023-05-23T00:01:08;605.68;;;566.94;;
2824;SDS011;1420;51.324;12.344;2023-05-23T00:03:35;648.50;;;606.92;;
2824;SDS011;1420;51.324;12.344;2023-05-23T00:06:04;510.34;;;483.42;;
2824;SDS011;1420;51.324;12.344;2023-05-23T00:08:30;495.36;;;466.72;;
2824;SDS011;1420;51.324;12.344;2023-05-23T00:10:58;497.88;;;468.66;;
2824;SDS011;1420;51.324;12.344;2023-05-23T00:13:25;475.14;;;448.34;;
2824;SDS011;1420;51.324;12.344;2023-05-23T00:15:52;574.60;;;538.12;;
2824;SDS011;1420;51.324;12.344;2023-05-23T00:18:19;539.00;;;507.62;;
2824;SDS011;1420;51.324;12.344;2023-05-23T00:20:47;522.44;;;492.76;;
2824;SDS011;1420;51.324;12.344;2023-05-23T00:23:14;536.14;;;504.26;;
2824;SDS011;1420;51.324;12.344;2023-05-23T00:25:41;496.92;;;468.44;;
2824;SDS011;1420;51.324;12.344;2023-05-23T00:28:09;510.10;;;477.18;;
2824;SDS011;1420;51.324;12.344;2023-05-23T00:30:37;474.12;;;448.12;;
2824;SDS011;1420;51.324;12.344;2023-05-23T00:33:04;450.96;;;426.36;;
2824;SDS011;1420;51.324;12.344;2023-05-23T00:35:31;501.44;;;473.86;;
2824;SDS011;1420;51.324;12.344;2023-05-23T00:37:59;462.30;;;432.04;;
2824;SDS011;1420;51.324;12.344;2023-05-23T00:40:26;449.68;;;425.54;;
2824;SDS011;1420;51.324;12.344;2023-05-23T00:42:53;467.54;;;440.46;;
2824;SDS011;1420;51.324;12.344;2023-05-23T00:45:20;497.10;;;470.24;;
2824;SDS011;1420;51.324;12.344;2023-05-23T00:47:48;470.50;;;444.12;;
2824;SDS011;1420;51.324;12.344;2023-05-23T00:50:15;547.52;;;515.76;;
2824;SDS011;1420;51.324;12.344;2023-05-23T00:52:43;569.76;;;538.20;;
2824;SDS011;1420;51.324;12.344;2023-05-23T00:55:11;472.66;;;448.10;;
2824;SDS011;1420;51.324;12.344;2023-05-23T00:57:37;538.94;;;508.88;;
2824;SDS011;1420;51.324;12.344;2023-05-23T01:00:06;534.44;;;503.82;;
2824;SDS011;1420;51.324;12.344;2023-05-23T01:02:38;479.46;;;452.40;;
2824;SDS011;1420;51.324;12.344;2023-05-23T01:05:04;492.38;;;465.04;;
2824;SDS011;1420;51.324;12.344;2023-05-23T01:07:32;477.06;;;451.76;;
2824;SDS011;1420;51.324;12.344;2023-05-23T01:09:59;430.72;;;408.48;;
2824;SDS011;1420;51.324;12.344;2023-05-23T01:12:33;567.00;;;532.96;;
2824;SDS011;1420;51.324;12.344;2023-05-23T01:15:04;516.16;;;485.18;;
2824;SDS011;1420;51.324;12.344;2023-05-23T01:17:33;487.66;;;460.00;;
2824;SDS011;1420;51.324;12.344;2023-05-23T01:20:06;526.22;;;493.76;;
2824;SDS011;1420;51.324;12.344;2023-05-23T01:22:36;444.34;;;419.60;;
2824;SDS011;1420;51.324;12.344;2023-05-23T01:25:08;496.28;;;466.46;;
2824;SDS011;1420;51.324;12.344;2023-05-23T01:27:56;465.70;;;439.06;;
2824;SDS011;1420;51.324;12.344;2023-05-23T01:30:23;381.54;;;358.62;;
2824;SDS011;1420;51.324;12.344;2023-05-23T01:32:52;474.86;;;448.54;;
2824;SDS011;1420;51.324;12.344;2023-05-23T01:35:21;441.94;;;416.76;;
2824;SDS011;1420;51.324;12.344;2023-05-23T01:37:46;418.28;;;392.70;;
2824;SDS011;1420;51.324;12.344;2023-05-23T01:40:13;461.26;;;434.42;;
2824;SDS011;1420;51.324;12.344;2023-05-23T01:42:40;535.36;;;501.06;;
2824;SDS011;1420;51.324;12.344;2023-05-23T01:45:08;476.48;;;449.44;;
2824;SDS011;1420;51.324;12.344;2023-05-23T01:47:36;380.98;;;359.72;;
2824;SDS011;1420;51.324;12.344;2023-05-23T01:50:03;419.92;;;394.12;;
2824;SDS011;1420;51.324;12.344;2023-05-23T01:52:30;437.90;;;409.84;;
2824;SDS011;1420;51.324;12.344;2023-05-23T01:54:58;420.60;;;392.60;;
2824;SDS011;1420;51.324;12.344;2023-05-23T01:57:27;457.42;;;429.10;;
2824;SDS011;1420;51.324;12.344;2023-05-23T01:59:53;403.52;;;376.88;;
2824;SDS011;1420;51.324;12.344;2023-05-23T02:02:20;514.30;;;476.56;;
2824;SDS011;1420;51.324;12.344;2023-05-23T02:04:48;438.04;;;410.26;;
2824;SDS011;1420;51.324;12.344;2023-05-23T02:07:16;358.70;;;337.32;;
2824;SDS011;1420;51.324;12.344;2023-05-23T02:09:43;433.94;;;402.72;;
2824;SDS011;1420;51.324;12.344;2023-05-23T02:12:11;435.66;;;403.00;;
2824;SDS011;1420;51.324;12.344;2023-05-23T02:14:38;474.44;;;434.98;;
2824;SDS011;1420;51.324;12.344;2023-05-23T02:17:05;385.56;;;358.94;;
2824;SDS011;1420;51.324;12.344;2023-05-23T02:19:32;410.04;;;380.80;;
2824;SDS011;1420;51.324;12.344;2023-05-23T02:21:59;434.58;;;405.40;;
2824;SDS011;1420;51.324;12.344;2023-05-23T02:24:27;504.82;;;462.90;;
2824;SDS011;1420;51.324;12.344;2023-05-23T02:26:54;425.62;;;395.10;;
2824;SDS011;1420;51.324;12.344;2023-05-23T02:29:21;472.54;;;439.26;;
2824;SDS011;1420;51.324;12.344;2023-05-23T02:31:48;680.96;;;611.38;;
2824;SDS011;1420;51.324;12.344;2023-05-23T02:34:15;530.68;;;491.38;;
2824;SDS011;1420;51.324;12.344;2023-05-23T02:36:43;391.52;;;362.62;;
2824;SDS011;1420;51.324;12.344;2023-05-23T02:39:10;409.18;;;378.80;;
2824;SDS011;1420;51.324;12.344;2023-05-23T02:41:37;529.28;;;483.02;;
2824;SDS011;1420;51.324;12.344;2023-05-23T02:44:05;627.76;;;576.82;;
2824;SDS011;1420;51.324;12.344;2023-05-23T02:46:33;541.84;;;502.06;;
2824;SDS011;1420;51.324;12.344;2023-05-23T02:49:00;546.74;;;505.12;;
2824;SDS011;1420;51.324;12.344;2023-05-23T02:51:28;666.38;;;612.16;;
2824;SDS011;1420;51.324;12.344;2023-05-23T02:53:55;496.98;;;461.88;;
2824;SDS011;1420;51.324;12.344;2023-05-23T02:56:22;498.36;;;462.22;;
2824;SDS011;1420;51.324;12.344;2023-05-23T02:58:49;525.50;;;491.34;;
2824;SDS011;1420;51.324;12.344;2023-05-23T03:01:17;478.80;;;444.82;;
2824;SDS011;1420;51.324;12.344;2023-05-23T03:03:45;527.84;;;486.00;;
2824;SDS011;1420;51.324;12.344;2023-05-23T03:06:13;606.40;;;559.84;;
2824;SDS011;1420;51.324;12.344;2023-05-23T03:08:40;551.96;;;512.62;;
2824;SDS011;1420;51.324;12.344;2023-05-23T03:11:07;566.82;;;526.66;;
2824;SDS011;1420;51.324;12.344;2023-05-23T03:13:34;511.14;;;467.80;;
2824;SDS011;1420;51.324;12.344;2023-05-23T03:16:01;564.52;;;525.04;;
2824;SDS011;1420;51.324;12.344;2023-05-23T03:18:29;521.86;;;485.70;;
2824;SDS011;1420;51.324;12.344;2023-05-23T03:20:56;774.34;;;704.14;;
2824;SDS011;1420;51.324;12.344;2023-05-23T03:23:24;529.94;;;488.38;;
2824;SDS011;1420;51.324;12.344;2023-05-23T03:25:51;669.20;;;612.38;;
2824;SDS011;1420;51.324;12.344;2023-05-23T03:28:18;724.00;;;660.76;;
2824;SDS011;1420;51.324;12.344;2023-05-23T03:30:46;511.46;;;475.80;;
2824;SDS011;1420;51.324;12.344;2023-05-23T03:33:14;637.52;;;588.80;;
2824;SDS011;1420;51.324;12.344;2023-05-23T03:35:42;620.72;;;575.40;;
2824;SDS011;1420;51.324;12.344;2023-05-23T03:38:09;523.12;;;486.06;;
2824;SDS011;1420;51.324;12.344;2023-05-23T03:40:37;662.78;;;608.88;;
2824;SDS011;1420;51.324;12.344;2023-05-23T03:43:04;595.36;;;546.42;;
2824;SDS011;1420;51.324;12.344;2023-05-23T03:45:31;1083.06;;;714.96;;
2824;SDS011;1420;51.324;12.344;2023-05-23T03:47:58;674.82;;;618.76;;
2824;SDS011;1420;51.324;12.344;2023-05-23T03:50:26;727.88;;;669.00;;
2824;SDS011;1420;51.324;12.344;2023-05-23T03:52:53;656.62;;;603.00;;
2824;SDS011;1420;51.324;12.344;2023-05-23T03:55:20;616.66;;;570.66;;
2824;SDS011;1420;51.324;12.344;2023-05-23T03:57:47;727.06;;;665.42;;
2824;SDS011;1420;51.324;12.344;2023-05-23T04:00:15;724.26;;;656.68;;
2824;SDS011;1420;51.324;12.344;2023-05-23T04:02:42;729.98;;;668.88;;
2824;SDS011;1420;51.324;12.344;2023-05-23T04:05:10;477.20;;;442.18;;
2824;SDS011;1420;51.324;12.344;2023-05-23T04:07:37;623.28;;;577.74;;
2824;SDS011;1420;51.324;12.344;2023-05-23T04:10:05;613.96;;;571.06;;
2824;SDS011;1420;51.324;12.344;2023-05-23T04:12:33;712.60;;;652.72;;
2824;SDS011;1420;51.324;12.344;2023-05-23T04:15:00;534.02;;;499.86;;
2824;SDS011;1420;51.324;12.344;2023-05-23T04:17:27;843.54;;;766.56;;
2824;SDS011;1420;51.324;12.344;2023-05-23T04:19:55;631.04;;;582.66;;
2824;SDS011;1420;51.324;12.344;2023-05-23T04:22:22;567.46;;;530.56;;
2824;SDS011;1420;51.324;12.344;2023-05-23T04:24:49;728.50;;;670.64;;
2824;SDS011;1420;51.324;12.344;2023-05-23T04:27:19;571.84;;;531.48;;
2824;SDS011;1420;51.324;12.344;2023-05-23T04:29:46;543.62;;;501.16;;
2824;SDS011;1420;51.324;12.344;2023-05-23T04:32:14;706.32;;;642.54;;
2824;SDS011;1420;51.324;12.344;2023-05-23T04:34:41;612.78;;;568.04;;
2824;SDS011;1420;51.324;12.344;2023-05-23T04:37:08;674.00;;;624.02;;
2824;SDS011;1420;51.324;12.344;2023-05-23T04:39:35;562.88;;;522.78;;
2824;SDS011;1420;51.324;12.344;2023-05-23T04:42:02;811.80;;;742.80;;
2824;SDS011;1420;51.324;12.344;2023-05-23T04:44:30;537.78;;;501.28;;
2824;SDS011;1420;51.324;12.344;2023-05-23T04:46:57;710.88;;;649.52;;
2824;SDS011;1420;51.324;12.344;2023-05-23T04:49:24;581.52;;;540.74;;
2824;SDS011;1420;51.324;12.344;2023-05-23T04:51:52;593.54;;;550.16;;
2824;SDS011;1420;51.324;12.344;2023-05-23T04:54:21;666.98;;;619.36;;
2824;SDS011;1420;51.324;12.344;2023-05-23T04:56:48;664.40;;;609.32;;
2824;SDS011;1420;51.324;12.344;2023-05-23T04:59:16;616.20;;;570.76;;
2824;SDS011;1420;51.324;12.344;2023-05-23T05:01:45;662.32;;;604.04;;
2824;SDS011;1420;51.324;12.344;2023-05-23T05:04:12;559.04;;;519.56;;
2824;SDS011;1420;51.324;12.344;2023-05-23T05:06:41;747.18;;;680.46;;
2824;SDS011;1420;51.324;12.344;2023-05-23T05:09:08;611.68;;;563.98;;
2824;SDS011;1420;51.324;12.344;2023-05-23T05:11:36;585.18;;;541.40;;
2824;SDS011;1420;51.324;12.344;2023-05-23T05:14:03;555.40;;;512.32;;
2824;SDS011;1420;51.324;12.344;2023-05-23T05:16:30;626.22;;;583.16;;
2824;SDS011;1420;51.324;12.344;2023-05-23T05:18:58;458.92;;;428.72;;
2824;SDS011;1420;51.324;12.344;2023-05-23T05:21:25;378.04;;;352.34;;
2824;SDS011;1420;51.324;12.344;2023-05-23T05:23:52;568.64;;;530.80;;
2824;SDS011;1420;51.324;12.344;2023-05-23T05:26:19;551.46;;;511.14;;
2824;SDS011;1420;51.324;12.344;2023-05-23T05:28:47;480.64;;;449.70;;
2824;SDS011;1420;51.324;12.344;2023-05-23T05:31:14;594.42;;;546.90;;
2824;SDS011;1420;51.324;12.344;2023-05-23T05:33:41;467.30;;;436.28;;
2824;SDS011;1420;51.324;12.344;2023-05-23T05:36:08;524.98;;;487.18;;
2824;SDS011;1420;51.324;12.344;2023-05-23T05:38:36;392.14;;;366.60;;
2824;SDS011;1420;51.324;12.344;2023-05-23T05:41:03;553.82;;;515.22;;
2824;SDS011;1420;51.324;12.344;2023-05-23T05:43:30;430.56;;;402.78;;
2824;SDS011;1420;51.324;12.344;2023-05-23T05:45:57;523.22;;;485.52;;
2824;SDS011;1420;51.324;12.344;2023-05-23T05:48:25;471.20;;;441.32;;
2824;SDS011;1420;51.324;12.344;2023-05-23T05:50:52;453.62;;;424.24;;
2824;SDS011;1420;51.324;12.344;2023-05-23T05:53:19;565.34;;;520.00;;
2824;SDS011;1420;51.324;12.344;2023-05-23T05:55:46;473.80;;;444.76;;
2824;SDS011;1420;51.324;12.344;2023-05-23T05:58:14;430.56;;;403.68;;
2824;SDS011;1420;51.324;12.344;2023-05-23T06:00:41;420.64;;;392.58;;
2824;SDS011;1420;51.324;12.344;2023-05-23T06:03:09;445.06;;;413.64;;
2824;SDS011;1420;51.324;12.344;2023-05-23T06:05:36;633.80;;;583.82;;
2824;SDS011;1420;51.324;12.344;2023-05-23T06:08:03;478.74;;;443.40;;
2824;SDS011;1420;51.324;12.344;2023-05-23T06:10:30;567.42;;;526.30;;
2824;SDS011;1420;51.324;12.344;2023-05-23T06:12:58;462.44;;;432.36;;
2824;SDS011;1420;51.324;12.344;2023-05-23T06:15:25;633.80;;;583.20;;
2824;SDS011;1420;51.324;12.344;2023-05-23T06:17:52;565.12;;;526.40;;
2824;SDS011;1420;51.324;12.344;2023-05-23T06:20:19;579.16;;;536.80;;
2824;SDS011;1420;51.324;12.344;2023-05-23T06:22:46;485.00;;;451.82;;
2824;SDS011;1420;51.324;12.344;2023-05-23T06:25:15;557.88;;;519.82;;
2824;SDS011;1420;51.324;12.344;2023-05-23T06:27:42;652.40;;;599.08;;
2824;SDS011;1420;51.324;12.344;2023-05-23T06:30:09;417.78;;;389.86;;
2824;SDS011;1420;51.324;12.344;2023-05-23T06:32:38;718.64;;;654.24;;
2824;SDS011;1420;51.324;12.344;2023-05-23T06:35:06;850.80;;;746.48;;
2824;SDS011;1420;51.324;12.344;2023-05-23T06:37:33;996.78;;;806.58;;
2824;SDS011;1420;51.324;12.344;2023-05-23T06:40:01;1081.00;;;759.04;;
2824;SDS011;1420;51.324;12.344;2023-05-23T06:42:28;718.44;;;656.86;;
2824;SDS011;1420;51.324;12.344;2023-05-23T06:44:55;892.90;;;798.56;;
2824;SDS011;1420;51.324;12.344;2023-05-23T06:47:23;771.16;;;705.42;;
2824;SDS011;1420;51.324;12.344;2023-05-23T06:49:50;872.28;;;785.84;;
2824;SDS011;1420;51.324;12.344;2023-05-23T06:52:17;897.06;;;791.30;;
2824;SDS011;1420;51.324;12.344;2023-05-23T06:54:45;1008.84;;;776.84;;
2824;SDS011;1420;51.324;12.344;2023-05-23T06:57:13;620.50;;;576.50;;
2824;SDS011;1420;51.324;12.344;2023-05-23T06:59:40;1604.78;;;930.26;;
2824;SDS011;1420;51.324;12.344;2023-05-23T07:02:07;733.20;;;677.96;;
2824;SDS011;1420;51.324;12.344;2023-05-23T07:04:34;745.30;;;685.32;;
2824;SDS011;1420;51.324;12.344;2023-05-23T07:07:01;935.20;;;837.28;;
2824;SDS011;1420;51.324;12.344;2023-05-23T07:09:29;714.58;;;657.44;;
2824;SDS011;1420;51.324;12.344;2023-05-23T07:11:56;771.04;;;705.96;;
2824;SDS011;1420;51.324;12.344;2023-05-23T07:14:24;751.88;;;692.12;;
2824;SDS011;1420;51.324;12.344;2023-05-23T07:16:52;821.16;;;758.20;;
2824;SDS011;1420;51.324;12.344;2023-05-23T07:19:19;764.70;;;693.60;;
2824;SDS011;1420;51.324;12.344;2023-05-23T07:21:46;574.32;;;539.20;;
2824;SDS011;1420;51.324;12.344;2023-05-23T07:24:14;555.62;;;520.62;;
2824;SDS011;1420;51.324;12.344;2023-05-23T07:26:41;944.88;;;772.42;;
2824;SDS011;1420;51.324;12.344;2023-05-23T07:29:09;572.84;;;538.22;;
2824;SDS011;1420;51.324;12.344;2023-05-23T07:31:36;710.38;;;662.56;;
2824;SDS011;1420;51.324;12.344;2023-05-23T07:34:03;567.96;;;535.00;;
2824;SDS011;1420;51.324;12.344;2023-05-23T07:36:31;806.60;;;735.64;;
2824;SDS011;1420;51.324;12.344;2023-05-23T07:39:00;541.42;;;510.54;;
2824;SDS011;1420;51.324;12.344;2023-05-23T07:41:27;777.36;;;731.56;;
2824;SDS011;1420;51.324;12.344;2023-05-23T07:43:54;890.74;;;819.56;;
2824;SDS011;1420;51.324;12.344;2023-05-23T07:46:22;498.66;;;467.12;;
2824;SDS011;1420;51.324;12.344;2023-05-23T07:48:49;474.54;;;447.74;;
2824;SDS011;1420;51.324;12.344;2023-05-23T07:51:16;526.36;;;495.16;;
2824;SDS011;1420;51.324;12.344;2023-05-23T07:53:43;513.44;;;484.00;;
2824;SDS011;1420;51.324;12.344;2023-05-23T07:56:11;510.78;;;481.34;;
2824;SDS011;1420;51.324;12.344;2023-05-23T07:58:38;701.44;;;647.94;;
2824;SDS011;1420;51.324;12.344;2023-05-23T08:01:06;452.62;;;426.14;;
2824;SDS011;1420;51.324;12.344;2023-05-23T08:03:33;513.10;;;485.54;;
2824;SDS011;1420;51.324;12.344;2023-05-23T08:06:01;487.28;;;460.76;;
2824;SDS011;1420;51.324;12.344;2023-05-23T08:08:29;578.02;;;536.52;;
2824;SDS011;1420;51.324;12.344;2023-05-23T08:10:56;512.16;;;482.00;;
2824;SDS011;1420;51.324;12.344;2023-05-23T08:13:23;486.48;;;456.42;;
2824;SDS011;1420;51.324;12.344;2023-05-23T08:15:51;480.26;;;451.16;;
2824;SDS011;1420;51.324;12.344;2023-05-23T08:18:19;449.32;;;421.86;;
2824;SDS011;1420;51.324;12.344;2023-05-23T08:20:47;459.22;;;429.72;;
2824;SDS011;1420;51.324;12.344;2023-05-23T08:23:14;512.78;;;477.86;;
2824;SDS011;1420;51.324;12.344;2023-05-23T08:25:41;500.18;;;466.36;;
2824;SDS011;1420;51.324;12.344;2023-05-23T08:28:08;458.04;;;429.08;;
2824;SDS011;1420;51.324;12.344;2023-05-23T08:30:35;478.28;;;446.16;;
2824;SDS011;1420;51.324;12.344;2023-05-23T08:33:03;466.96;;;437.16;;
2824;SDS011;1420;51.324;12.344;2023-05-23T08:35:31;465.30;;;436.92;;
2824;SDS011;1420;51.324;12.344;2023-05-23T08:37:59;495.94;;;464.36;;
2824;SDS011;1420;51.324;12.344;2023-05-23T08:40:26;394.38;;;367.84;;
2824;SDS011;1420;51.324;12.344;2023-05-23T08:42:54;382.40;;;359.60;;
2824;SDS011;1420;51.324;12.344;2023-05-23T08:45:21;368.50;;;347.18;;
2824;SDS011;1420;51.324;12.344;2023-05-23T08:47:48;338.40;;;320.22;;
2824;SDS011;1420;51.324;12.344;2023-05-23T08:50:16;333.76;;;315.60;;
2824;SDS011;1420;51.324;12.344;2023-05-23T08:52:47;311.18;;;293.24;;
2824;SDS011;1420;51.324;12.344;2023-05-23T08:55:13;303.88;;;287.24;;
2824;SDS011;1420;51.324;12.344;2023-05-23T08:57:41;316.44;;;298.72;;
2824;SDS011;1420;51.324;12.344;2023-05-23T09:00:10;274.74;;;260.46;;
2824;SDS011;1420;51.324;12.344;2023-05-23T09:02:37;345.64;;;327.84;;
2824;SDS011;1420;51.324;12.344;2023-05-23T09:05:05;344.64;;;327.82;;
2824;SDS011;1420;51.324;12.344;2023-05-23T09:07:33;353.32;;;333.74;;
2824;SDS011;1420;51.324;12.344;2023-05-23T09:10:00;311.40;;;296.02;;
2824;SDS011;1420;51.324;12.344;2023-05-23T09:12:28;320.28;;;302.98;;
2824;SDS011;1420;51.324;12.344;2023-05-23T09:14:55;395.48;;;374.76;;
2824;SDS011;1420;51.324;12.344;2023-05-23T09:17:23;336.84;;;319.00;;
2824;SDS011;1420;51.324;12.344;2023-05-23T09:19:52;315.36;;;298.82;;
2824;SDS011;1420;51.324;12.344;2023-05-23T09:22:23;323.10;;;306.16;;
2824;SDS011;1420;51.324;12.344;2023-05-23T09:24:50;337.92;;;319.12;;
2824;SDS011;1420;51.324;12.344;2023-05-23T09:27:18;326.98;;;310.04;;
2824;SDS011;1420;51.324;12.344;2023-05-23T09:29:47;298.56;;;283.68;;
2824;SDS011;1420;51.324;12.344;2023-05-23T09:32:14;308.18;;;290.94;;
2824;SDS011;1420;51.324;12.344;2023-05-23T09:34:58;386.62;;;368.04;;
2824;SDS011;1420;51.324;12.344;2023-05-23T09:37:28;320.32;;;303.12;;
2824;SDS011;1420;51.324;12.344;2023-05-23T09:39:57;388.40;;;368.26;;
2824;SDS011;1420;51.324;12.344;2023-05-23T09:42:23;325.52;;;307.60;;
2824;SDS011;1420;51.324;12.344;2023-05-23T09:44:50;332.46;;;314.92;;
2824;SDS011;1420;51.324;12.344;2023-05-23T09:47:18;377.44;;;357.96;;
2824;SDS011;1420;51.324;12.344;2023-05-23T09:49:45;408.72;;;385.40;;
2824;SDS011;1420;51.324;12.344;2023-05-23T09:52:14;349.84;;;331.94;;
2824;SDS011;1420;51.324;12.344;2023-05-23T09:54:42;381.80;;;361.02;;
2824;SDS011;1420;51.324;12.344;2023-05-23T09:57:09;639.34;;;594.36;;
2824;SDS011;1420;51.324;12.344;2023-05-23T09:59:38;413.64;;;392.28;;
2824;SDS011;1420;51.324;12.344;2023-05-23T10:02:05;501.72;;;472.66;;
2824;SDS011;1420;51.324;12.344;2023-05-23T10:04:33;404.48;;;382.46;;
2824;SDS011;1420;51.324;12.344;2023-05-23T10:07:03;392.14;;;371.70;;
2824;SDS011;1420;51.324;12.344;2023-05-23T10:09:28;348.94;;;329.56;;
2824;SDS011;1420;51.324;12.344;2023-05-23T10:12:12;374.04;;;350.40;;
2824;SDS011;1420;51.324;12.344;2023-05-23T10:14:29;380.40;;;360.30;;
2824;SDS011;1420;51.324;12.344;2023-05-23T10:16:58;370.08;;;350.14;;
2824;SDS011;1420;51.324;12.344;2023-05-23T10:19:34;414.56;;;393.72;;
2824;SDS011;1420;51.324;12.344;2023-05-23T10:22:03;400.72;;;378.52;;
2824;SDS011;1420;51.324;12.344;2023-05-23T10:24:30;484.30;;;458.66;;
2824;SDS011;1420;51.324;12.344;2023-05-23T10:26:58;652.18;;;611.94;;
2824;SDS011;1420;51.324;12.344;2023-05-23T10:29:26;446.86;;;422.92;;
2824;SDS011;1420;51.324;12.344;2023-05-23T10:31:52;510.56;;;483.24;;
2824;SDS011;1420;51.324;12.344;2023-05-23T10:34:22;388.80;;;368.88;;
2824;SDS011;1420;51.324;12.344;2023-05-23T10:37:00;862.72;;;797.98;;
2824;SDS011;1420;51.324;12.344;2023-05-23T10:42:16;390.58;;;370.18;;
2824;SDS011;1420;51.324;12.344;2023-05-23T10:44:41;377.62;;;358.30;;
2824;SDS011;1420;51.324;12.344;2023-05-23T10:47:09;389.26;;;368.68;;
2824;SDS011;1420;51.324;12.344;2023-05-23T10:49:37;506.30;;;473.90;;
2824;SDS011;1420;51.324;12.344;2023-05-23T10:52:04;649.86;;;590.88;;
2824;SDS011;1420;51.324;12.344;2023-05-23T10:54:36;422.38;;;399.58;;
2824;SDS011;1420;51.324;12.344;2023-05-23T10:57:03;476.04;;;445.60;;
2824;SDS011;1420;51.324;12.344;2023-05-23T10:59:31;757.08;;;697.84;;
2824;SDS011;1420;51.324;12.344;2023-05-23T11:01:59;397.70;;;375.50;;
2824;SDS011;1420;51.324;12.344;2023-05-23T11:04:27;457.78;;;430.26;;
2824;SDS011;1420;51.324;12.344;2023-05-23T11:06:54;410.52;;;384.36;;
2824;SDS011;1420;51.324;12.344;2023-05-23T11:09:21;562.96;;;527.82;;
2824;SDS011;1420;51.324;12.344;2023-05-23T11:11:53;432.70;;;407.04;;
2824;SDS011;1420;51.324;12.344;2023-05-23T11:14:30;478.00;;;451.42;;
2824;SDS011;1420;51.324;12.344;2023-05-23T11:17:14;431.62;;;405.88;;
2824;SDS011;1420;51.324;12.344;2023-05-23T11:22:21;481.74;;;453.46;;
2824;SDS011;1420;51.324;12.344;2023-05-23T11:24:51;549.98;;;513.94;;
2824;SDS011;1420;51.324;12.344;2023-05-23T11:27:33;435.96;;;413.00;;
2824;SDS011;1420;51.324;12.344;2023-05-23T11:30:02;972.48;;;877.62;;
2824;SDS011;1420;51.324;12.344;2023-05-23T11:32:29;482.12;;;449.62;;
2824;SDS011;1420;51.324;12.344;2023-05-23T11:34:58;814.28;;;684.34;;
2824;SDS011;1420;51.324;12.344;2023-05-23T11:37:25;723.98;;;649.74;;
2824;SDS011;1420;51.324;12.344;2023-05-23T11:39:52;570.56;;;532.48;;
2824;SDS011;1420;51.324;12.344;2023-05-23T11:42:21;546.62;;;504.24;;
2824;SDS011;1420;51.324;12.344;2023-05-23T11:44:48;572.54;;;527.04;;
2824;SDS011;1420;51.324;12.344;2023-05-23T11:47:16;454.64;;;423.10;;
2824;SDS011;1420;51.324;12.344;2023-05-23T11:49:44;521.80;;;486.14;;
2824;SDS011;1420;51.324;12.344;2023-05-23T11:52:11;449.38;;;420.10;;
2824;SDS011;1420;51.324;12.344;2023-05-23T11:54:39;469.98;;;441.36;;
2824;SDS011;1420;51.324;12.344;2023-05-23T11:57:06;735.58;;;673.58;;
2824;SDS011;1420;51.324;12.344;2023-05-23T11:59:33;624.40;;;579.28;;
2824;SDS011;1420;51.324;12.344;2023-05-23T12:02:01;448.40;;;417.52;;
2824;SDS011;1420;51.324;12.344;2023-05-23T12:04:28;487.96;;;451.18;;
2824;SDS011;1420;51.324;12.344;2023-05-23T12:06:55;692.64;;;628.34;;
2824;SDS011;1420;51.324;12.344;2023-05-23T12:09:22;695.18;;;625.10;;
2824;SDS011;1420;51.324;12.344;2023-05-23T12:11:50;893.56;;;806.84;;
2824;SDS011;1420;51.324;12.344;2023-05-23T12:14:17;604.74;;;560.12;;
2824;SDS011;1420;51.324;12.344;2023-05-23T12:16:45;828.84;;;747.84;;
2824;SDS011;1420;51.324;12.344;2023-05-23T12:19:12;611.66;;;564.24;;
2824;SDS011;1420;51.324;12.344;2023-05-23T12:21:45;748.88;;;689.48;;
2824;SDS011;1420;51.324;12.344;2023-05-23T12:24:14;627.26;;;576.28;;
2824;SDS011;1420;51.324;12.344;2023-05-23T12:26:45;726.14;;;661.54;;
2824;SDS011;1420;51.324;12.344;2023-05-23T12:29:14;906.00;;;807.36;;
2824;SDS011;1420;51.324;12.344;2023-05-23T12:31:42;879.72;;;790.02;;
2824;SDS011;1420;51.324;12.344;2023-05-23T12:34:10;680.18;;;622.14;;
2824;SDS011;1420;51.324;12.344;2023-05-23T12:36:37;914.28;;;755.60;;
2824;SDS011;1420;51.324;12.344;2023-05-23T12:39:04;763.66;;;696.06;;
2824;SDS011;1420;51.324;12.344;2023-05-23T12:41:32;810.04;;;725.24;;
2824;SDS011;1420;51.324;12.344;2023-05-23T12:44:01;591.04;;;549.62;;
2824;SDS011;1420;51.324;12.344;2023-05-23T12:46:26;886.82;;;694.42;;
2824;SDS011;1420;51.324;12.344;2023-05-23T12:48:54;572.86;;;531.74;;
2824;SDS011;1420;51.324;12.344;2023-05-23T12:51:22;758.78;;;694.10;;
2824;SDS011;1420;51.324;12.344;2023-05-23T12:53:49;579.46;;;541.42;;
2824;SDS011;1420;51.324;12.344;2023-05-23T12:56:16;817.96;;;755.74;;
2824;SDS011;1420;51.324;12.344;2023-05-23T12:58:44;646.42;;;598.30;;
2824;SDS011;1420;51.324;12.344;2023-05-23T13:01:11;879.26;;;792.26;;
2824;SDS011;1420;51.324;12.344;2023-05-23T13:03:38;891.42;;;758.08;;
2824;SDS011;1420;51.324;12.344;2023-05-23T13:06:06;664.76;;;621.52;;
2824;SDS011;1420;51.324;12.344;2023-05-23T13:08:33;607.98;;;568.66;;
2824;SDS011;1420;51.324;12.344;2023-05-23T13:11:00;1216.10;;;915.40;;
2824;SDS011;1420;51.324;12.344;2023-05-23T13:13:28;1135.22;;;798.34;;
2824;SDS011;1420;51.324;12.344;2023-05-23T13:15:55;909.48;;;825.70;;
2824;SDS011;1420;51.324;12.344;2023-05-23T13:18:22;1001.66;;;900.90;;
2824;SDS011;1420;51.324;12.344;2023-05-23T13:20:50;638.80;;;599.68;;
2824;SDS011;1420;51.324;12.344;2023-05-23T13:23:17;872.78;;;786.38;;
2824;SDS011;1420;51.324;12.344;2023-05-23T13:25:45;592.72;;;549.90;;
2824;SDS011;1420;51.324;12.344;2023-05-23T13:28:12;575.40;;;536.38;;
2824;SDS011;1420;51.324;12.344;2023-05-23T13:30:40;757.22;;;693.64;;
2824;SDS011;1420;51.324;12.344;2023-05-23T13:33:07;614.40;;;572.18;;
2824;SDS011;1420;51.324;12.344;2023-05-23T13:35:34;641.66;;;599.38;;
2824;SDS011;1420;51.324;12.344;2023-05-23T13:38:02;896.52;;;713.50;;
2824;SDS011;1420;51.324;12.344;2023-05-23T13:40:29;902.20;;;815.92;;
2824;SDS011;1420;51.324;12.344;2023-05-23T13:42:56;747.72;;;688.30;;
2824;SDS011;1420;51.324;12.344;2023-05-23T13:45:24;951.64;;;847.74;;
2824;SDS011;1420;51.324;12.344;2023-05-23T13:47:51;744.12;;;672.26;;
2824;SDS011;1420;51.324;12.344;2023-05-23T13:50:19;897.94;;;810.98;;
2824;SDS011;1420;51.324;12.344;2023-05-23T13:52:46;998.40;;;865.32;;
2824;SDS011;1420;51.324;12.344;2023-05-23T13:55:13;662.12;;;618.40;;
2824;SDS011;1420;51.324;12.344;2023-05-23T13:57:40;578.14;;;542.62;;
2824;SDS011;1420;51.324;12.344;2023-05-23T14:00:08;713.38;;;657.16;;
2824;SDS011;1420;51.324;12.344;2023-05-23T14:02:36;1303.90;;;808.86;;
2824;SDS011;1420;51.324;12.344;2023-05-23T14:05:03;974.92;;;859.96;;
2824;SDS011;1420;51.324;12.344;2023-05-23T14:07:30;786.78;;;707.48;;
2824;SDS011;1420;51.324;12.344;2023-05-23T14:09:58;1748.78;;;918.62;;
2824;SDS011;1420;51.324;12.344;2023-05-23T14:12:25;703.22;;;652.44;;
2824;SDS011;1420;51.324;12.344;2023-05-23T14:14:53;768.36;;;713.96;;
2824;SDS011;1420;51.324;12.344;2023-05-23T14:17:20;568.12;;;531.12;;